Главная страница
METAR-TAF:

METAR-TAF

Аэропорты :

Бингемтон, Нью-Йорк, США

широта: 42-12-28N, долгота: 075-58-53W, высота над уровнем моря: 496 м

Текущие метеонаблюдения

Эта сводка был подготовлена 39 минут назад, в 09:53 UTC
Ветер 3 Узел от западно-северо-западный
Температура 14°C
Влажность 77%
Давление 1022 hPa
Видимость: 16.1 км
ясное небо

METAR: KBGM 060953Z AUTO 29003KT 10SM CLR 14/10 A3017 RMK AO2 SLP208 T01440100

Время: 06:32 (10:32 UTC)

Прогноз

Эта сводка был подготовлена 1 час и 32 минут назад, в 09:00 UTC
Прогноз действительный с 06-го 09 UTC до 07-го 06 UTC
Ветер 3 Узел переменных направлений
Видимость: 10 км
небольшая облачность на высоте 22000 фута
С 06-го 1400 UTC
Ветер 5 Узел от северно-северо-западный
Видимость: 10 км
Отдельные облака на высоте 25000 фута
С 07-го 0100 UTC
Ветер 4 Узел от восточно-северо-восточный
Видимость: 10 км
Рассеянная облачность на высоте 10000 фута

TAF: KBGM 060900Z 0609/0706 VRB03KT P6SM FEW220 FM061400 33005KT P6SM SCT250 FM070100 06004KT P6SM BKN100

Метеонаблюдения и прогнозы для более 4000 аэропортов (сводки METAR и TAF).

Имеющиеся станции представлены на карте желтыми и красными точками.

Чтобы увидеть название станции, наведите на нее мышь.

Затем щелкните, чтобы увидеть метеонаблюдения и метеопрогнозы.

Управление картой: чтобы увеличить масштаб, щелкните зеленые кнопки с черным крестиком; чтобы уменьшить масштаб, щелкните зеленую кнопку с тире; для просмотра соседних карт щелкайте зеленые стрелки.


METAR-TAF: